Time;durP1;ratioP1;P1;durP2;ratioP2;P2;SDS_P1;SDS_P2;PMS_P1;PMS_P2;Temp;Humidity;BMP_temperature;BMP_pressure;BME280_temperature;BME280_humidity;BME280_pressure;Samples;Min_cycle;Max_cycle;Signal;HPM_P1;HPM_P2
2024/04/10 00:00:28;;;;;;;11.90;6.10;;;;;;;;;;2220663;26;20005;-63
2024/04/10 00:01:51;;;;;;;7.03;5.63;;;;;;;;;;2213918;26;20030;-63
2024/04/10 00:03:10;;;;;;;10.85;6.80;;;;;;;;;;2214016;26;20028;-63
2024/04/10 00:04:29;;;;;;;8.95;6.38;;;;;;;;;;2216118;26;20360;-62
2024/04/10 00:05:58;;;;;;;9.10;6.10;;;;;;;;;;2213308;26;20004;-63
2024/04/10 00:07:17;;;;;;;9.18;5.85;;;;;;;;;;2214912;26;19997;-63
2024/04/10 00:08:36;;;;;;;6.65;5.18;;;;;;;;;;2210244;26;20609;-63
2024/04/10 00:09:55;;;;;;;7.18;6.25;;;;;;;;;;2214120;26;20008;-62
2024/04/10 00:11:17;;;;;;;8.52;6.22;;;;;;;;;;2214837;26;20016;-63
2024/04/10 00:12:36;;;;;;;9.35;5.93;;;;;;;;;;2223755;26;20022;-64
2024/04/10 00:13:55;;;;;;;7.28;5.75;;;;;;;;;;2218412;26;20000;-63
2024/04/10 00:15:15;;;;;;;6.38;5.50;;;;;;;;;;2211989;26;20666;-63
2024/04/10 00:16:33;;;;;;;5.95;5.00;;;;;;;;;;2210933;26;20012;-64
2024/04/10 00:17:52;;;;;;;7.82;5.10;;;;;;;;;;2224886;26;19999;-63
2024/04/10 00:19:11;;;;;;;8.10;5.60;;;;;;;;;;2217589;26;20004;-63
2024/04/10 00:20:30;;;;;;;9.05;4.82;;;;;;;;;;2211900;26;20008;-63
2024/04/10 00:21:53;;;;;;;7.90;5.15;;;;;;;;;;2212017;26;20016;-63
2024/04/10 00:23:12;;;;;;;;;;;;;;;;;;2213988;26;20012;-63
2024/04/10 00:24:31;;;;;;;8.38;4.93;;;;;;;;;;2215115;26;20051;-61
2024/04/10 00:25:58;;;;;;;7.97;5.30;;;;;;;;;;2213930;26;19996;-63
2024/04/10 00:27:16;;;;;;;6.95;5.38;;;;;;;;;;2212379;26;20401;-63
2024/04/10 00:28:36;;;;;;;10.75;5.10;;;;;;;;;;2215045;26;20016;-63
2024/04/10 00:29:55;;;;;;;7.38;5.07;;;;;;;;;;2214144;26;20004;-63
2024/04/10 00:31:14;;;;;;;5.20;4.70;;;;;;;;;;2214202;26;19997;-63
2024/04/10 00:32:33;;;;;;;9.65;5.03;;;;;;;;;;2212455;26;20012;-63
2024/04/10 00:33:52;;;;;;;7.57;4.82;;;;;;;;;;2214173;26;20016;-62
2024/04/10 00:35:11;;;;;;;6.05;5.50;;;;;;;;;;2216032;26;20631;-63
2024/04/10 00:36:30;;;;;;;8.77;5.53;;;;;;;;;;2213919;26;20012;-61
2024/04/10 00:37:49;;;;;;;7.47;5.63;;;;;;;;;;2210866;26;20012;-63
2024/04/10 00:39:09;;;;;;;8.73;5.40;;;;;;;;;;2214939;26;20040;-63
2024/04/10 00:40:28;;;;;;;7.40;5.28;;;;;;;;;;2213649;26;20346;-63
2024/04/10 00:41:47;;;;;;;8.35;6.03;;;;;;;;;;2213553;26;20020;-63
2024/04/10 00:43:11;;;;;;;6.40;5.57;;;;;;;;;;2213452;26;20016;-61
2024/04/10 00:44:30;;;;;;;7.20;4.68;;;;;;;;;;2217637;26;20000;-63
2024/04/10 00:46:09;;;;;;;10.52;5.20;;;;;;;;;;2212633;26;20004;-63
2024/04/10 00:47:28;;;;;;;9.07;5.60;;;;;;;;;;2212099;26;20011;-63
2024/04/10 00:48:48;;;;;;;5.53;4.70;;;;;;;;;;2214649;26;20697;-63
2024/04/10 00:50:07;;;;;;;8.45;5.07;;;;;;;;;;2211516;26;20444;-63
2024/04/10 00:51:26;;;;;;;7.65;4.53;;;;;;;;;;2212136;26;20015;-61
2024/04/10 00:52:45;;;;;;;6.63;4.72;;;;;;;;;;2211692;26;20012;-61
2024/04/10 00:54:05;;;;;;;8.23;5.15;;;;;;;;;;2213856;26;20000;-63
2024/04/10 00:55:25;;;;;;;8.38;5.20;;;;;;;;;;2214096;26;20008;-63
2024/04/10 00:56:44;;;;;;;10.27;5.03;;;;;;;;;;2213259;26;20329;-62
2024/04/10 00:58:03;;;;;;;7.93;5.25;;;;;;;;;;2212615;26;20008;-62
2024/04/10 00:59:22;;;;;;;7.65;4.50;;;;;;;;;;2215132;26;20155;-63
2024/04/10 01:00:41;;;;;;;5.53;4.70;;;;;;;;;;2215944;26;20817;-63
2024/04/10 01:02:00;;;;;;;8.40;5.22;;;;;;;;;;2215365;26;20020;-63
2024/04/10 01:03:19;;;;;;;7.05;5.50;;;;;;;;;;2212619;26;23035;-62
2024/04/10 01:04:38;;;;;;;7.25;5.30;;;;;;;;;;2213336;26;20000;-63
2024/04/10 01:05:58;;;;;;;8.68;5.30;;;;;;;;;;2214466;26;20452;-63
2024/04/10 01:07:18;;;;;;;7.18;4.95;;;;;;;;;;2213593;26;20004;-63
2024/04/10 01:08:38;;;;;;;5.65;5.00;;;;;;;;;;2225140;26;20012;-62
2024/04/10 01:09:57;;;;;;;5.90;4.60;;;;;;;;;;2213037;26;20015;-63
2024/04/10 01:11:16;;;;;;;8.73;4.22;;;;;;;;;;2212402;26;20000;-62
2024/04/10 01:12:38;;;;;;;6.45;4.78;;;;;;;;;;2212813;26;20007;-61
2024/04/10 01:13:57;;;;;;;6.97;5.18;;;;;;;;;;2220254;26;20004;-64
2024/04/10 01:15:17;;;;;;;5.75;4.45;;;;;;;;;;2214795;26;20016;-63
2024/04/10 01:16:36;;;;;;;5.82;4.60;;;;;;;;;;2222558;26;21737;-63
2024/04/10 01:17:55;;;;;;;6.05;4.32;;;;;;;;;;2212409;26;21809;-63
2024/04/10 01:19:14;;;;;;;7.00;4.72;;;;;;;;;;2218494;26;20003;-62
2024/04/10 01:20:33;;;;;;;7.40;5.25;;;;;;;;;;2212791;26;20059;-62
2024/04/10 01:21:52;;;;;;;5.68;4.22;;;;;;;;;;2211712;26;20337;-63
2024/04/10 01:23:12;;;;;;;5.75;4.10;;;;;;;;;;2211957;26;20013;-62
2024/04/10 01:24:30;;;;;;;8.57;4.78;;;;;;;;;;2212077;26;20012;-60
2024/04/10 01:25:49;;;;;;;5.68;4.80;;;;;;;;;;2214929;26;20008;-62
2024/04/10 01:27:08;;;;;;;7.32;4.72;;;;;;;;;;2211714;26;20769;-62
2024/04/10 01:28:27;;;;;;;5.03;4.28;;;;;;;;;;2212509;26;20020;-63
2024/04/10 01:29:46;;;;;;;5.18;4.57;;;;;;;;;;2214490;26;20365;-62
2024/04/10 01:31:05;;;;;;;4.55;4.15;;;;;;;;;;2213441;26;20004;-62
2024/04/10 01:32:24;;;;;;;7.65;4.88;;;;;;;;;;2212582;26;20009;-62
2024/04/10 01:33:43;;;;;;;7.68;4.50;;;;;;;;;;2212006;26;20609;-63
2024/04/10 01:35:02;;;;;;;8.27;4.40;;;;;;;;;;2214679;26;20438;-63
2024/04/10 01:36:21;;;;;;;5.85;4.53;;;;;;;;;;2210654;26;20388;-65
2024/04/10 01:37:40;;;;;;;8.63;4.78;;;;;;;;;;2208736;26;20016;-63
2024/04/10 01:38:59;;;;;;;6.80;5.30;;;;;;;;;;2215487;26;20438;-61
2024/04/10 01:40:18;;;;;;;6.28;4.85;;;;;;;;;;2213947;26;20009;-63
2024/04/10 01:41:37;;;;;;;7.65;4.72;;;;;;;;;;2213376;26;20008;-62
2024/04/10 01:42:56;;;;;;;8.77;4.85;;;;;;;;;;2212678;26;20362;-62
2024/04/10 01:44:15;;;;;;;5.82;3.88;;;;;;;;;;2216259;26;20469;-62
2024/04/10 01:45:36;;;;;;;5.95;4.05;;;;;;;;;;2212219;26;20043;-61
2024/04/10 01:46:55;;;;;;;5.13;4.10;;;;;;;;;;2212231;26;20442;-64
2024/04/10 01:48:14;;;;;;;6.68;4.82;;;;;;;;;;2213575;26;19996;-63
2024/04/10 01:49:33;;;;;;;4.78;4.25;;;;;;;;;;2212845;26;19996;-63
2024/04/10 01:50:52;;;;;;;6.45;4.43;;;;;;;;;;2213246;26;19996;-62
2024/04/10 01:52:11;;;;;;;8.95;4.93;;;;;;;;;;2212601;26;20016;-62
2024/04/10 01:53:30;;;;;;;6.78;4.22;;;;;;;;;;2211544;26;20000;-63
2024/04/10 01:54:50;;;;;;;5.93;4.50;;;;;;;;;;2213018;26;20004;-63
2024/04/10 01:56:09;;;;;;;5.50;4.90;;;;;;;;;;2209986;26;20597;-63
2024/04/10 01:57:28;;;;;;;8.55;4.80;;;;;;;;;;2212090;26;20004;-62
2024/04/10 01:58:47;;;;;;;7.88;4.63;;;;;;;;;;2215638;26;20028;-63
2024/04/10 02:00:09;;;;;;;6.50;4.72;;;;;;;;;;2211860;26;20054;-62
2024/04/10 02:01:28;;;;;;;7.40;5.13;;;;;;;;;;2212905;26;20004;-63
2024/04/10 02:02:48;;;;;;;7.45;4.72;;;;;;;;;;2213122;26;20000;-63
2024/04/10 02:04:07;;;;;;;7.72;4.53;;;;;;;;;;2214243;26;20008;-63
2024/04/10 02:05:26;;;;;;;7.10;4.93;;;;;;;;;;2211975;26;20004;-61
2024/04/10 02:06:45;;;;;;;8.27;5.18;;;;;;;;;;2211900;26;20032;-62
2024/04/10 02:08:04;;;;;;;8.38;4.80;;;;;;;;;;2206823;26;20004;-62
2024/04/10 02:09:23;;;;;;;9.82;5.10;;;;;;;;;;2211444;26;20000;-63
2024/04/10 02:10:42;;;;;;;8.85;5.68;;;;;;;;;;2212066;26;20016;-61
2024/04/10 02:12:02;;;;;;;6.35;5.32;;;;;;;;;;2204010;26;20445;-63
2024/04/10 02:13:22;;;;;;;4.95;4.30;;;;;;;;;;2206090;26;20009;-63
2024/04/10 02:14:40;;;;;;;9.50;5.13;;;;;;;;;;2211820;26;20539;-63
2024/04/10 02:16:00;;;;;;;6.93;5.60;;;;;;;;;;2214034;26;20866;-60
2024/04/10 02:17:19;;;;;;;7.50;5.45;;;;;;;;;;2212551;26;20408;-62
2024/04/10 02:18:38;;;;;;;6.50;5.43;;;;;;;;;;2222447;26;19999;-63
2024/04/10 02:19:57;;;;;;;10.02;4.60;;;;;;;;;;2208637;26;20020;-62
2024/04/10 02:21:17;;;;;;;9.85;5.18;;;;;;;;;;2212841;26;20008;-62
2024/04/10 02:22:36;;;;;;;8.60;5.72;;;;;;;;;;2214801;26;20012;-62
2024/04/10 02:23:55;;;;;;;6.63;4.60;;;;;;;;;;2213857;26;20008;-62
2024/04/10 02:25:14;;;;;;;9.75;5.80;;;;;;;;;;2212005;26;20012;-62
2024/04/10 02:26:33;;;;;;;6.68;5.65;;;;;;;;;;2212912;26;20140;-62
2024/04/10 02:27:52;;;;;;;13.10;6.30;;;;;;;;;;2213549;26;20001;-61
2024/04/10 02:29:11;;;;;;;9.73;6.40;;;;;;;;;;2216742;26;20004;-63
2024/04/10 02:30:30;;;;;;;10.25;5.75;;;;;;;;;;2214114;26;20000;-62
2024/04/10 02:31:49;;;;;;;12.63;6.90;;;;;;;;;;2216799;26;20462;-63
2024/04/10 02:33:08;;;;;;;14.23;6.85;;;;;;;;;;2215118;26;22920;-63
2024/04/10 02:34:27;;;;;;;9.68;7.00;;;;;;;;;;2216218;26;20008;-61
2024/04/10 02:35:46;;;;;;;10.38;6.70;;;;;;;;;;2211452;26;20009;-63
2024/04/10 02:37:05;;;;;;;7.80;5.82;;;;;;;;;;2211559;26;20048;-60
2024/04/10 02:38:25;;;;;;;6.93;6.18;;;;;;;;;;2214261;26;20000;-62
2024/04/10 02:39:44;;;;;;;8.35;6.93;;;;;;;;;;2212350;26;20439;-63
2024/04/10 02:41:04;;;;;;;11.23;7.18;;;;;;;;;;2209560;26;20016;-62
2024/04/10 02:42:23;;;;;;;8.93;7.13;;;;;;;;;;2213417;26;20005;-63
2024/04/10 02:43:42;;;;;;;10.75;7.60;;;;;;;;;;2214614;26;20000;-63
2024/04/10 02:45:01;;;;;;;13.00;7.15;;;;;;;;;;2214297;26;20012;-62
2024/04/10 02:46:20;;;;;;;8.32;7.18;;;;;;;;;;2215583;26;20004;-63
2024/04/10 02:47:39;;;;;;;11.63;6.68;;;;;;;;;;2211855;26;19999;-63
2024/04/10 02:48:58;;;;;;;9.57;7.03;;;;;;;;;;2214544;26;20009;-63
2024/04/10 02:50:17;;;;;;;9.30;6.90;;;;;;;;;;2212585;26;20018;-63
2024/04/10 02:51:36;;;;;;;10.10;6.70;;;;;;;;;;2213938;26;20024;-63
2024/04/10 02:52:55;;;;;;;11.05;7.05;;;;;;;;;;2230702;26;20008;-63
2024/04/10 02:54:14;;;;;;;9.18;6.45;;;;;;;;;;2217399;26;20048;-62
2024/04/10 02:55:33;;;;;;;9.23;6.90;;;;;;;;;;2214974;26;20367;-64
2024/04/10 02:56:52;;;;;;;12.68;7.53;;;;;;;;;;2213854;26;20024;-60
2024/04/10 02:58:12;;;;;;;13.23;6.90;;;;;;;;;;2214758;26;20008;-63
2024/04/10 02:59:31;;;;;;;9.38;7.38;;;;;;;;;;2215747;26;20016;-63
2024/04/10 03:00:51;;;;;;;9.35;6.90;;;;;;;;;;2214697;26;20571;-63
2024/04/10 03:02:11;;;;;;;10.75;7.18;;;;;;;;;;2218989;26;20004;-63
2024/04/10 03:03:31;;;;;;;12.00;7.53;;;;;;;;;;2214301;26;20004;-63
2024/04/10 03:04:50;;;;;;;11.27;7.45;;;;;;;;;;2214508;26;20441;-63
2024/04/10 03:06:09;;;;;;;15.70;7.80;;;;;;;;;;2212515;26;23397;-62
2024/04/10 03:07:28;;;;;;;10.93;7.32;;;;;;;;;;2213542;26;20012;-62
2024/04/10 03:08:50;;;;;;;10.13;6.68;;;;;;;;;;2216098;26;20462;-63
2024/04/10 03:10:09;;;;;;;14.38;7.63;;;;;;;;;;2214500;26;20009;-63
2024/04/10 03:11:28;;;;;;;17.30;7.95;;;;;;;;;;2212139;26;20008;-63
2024/04/10 03:12:47;;;;;;;14.13;7.85;;;;;;;;;;2214972;26;20004;-63
2024/04/10 03:14:08;;;;;;;10.55;7.30;;;;;;;;;;2215830;26;20776;-63
2024/04/10 03:15:27;;;;;;;11.80;7.95;;;;;;;;;;2213226;26;20004;-64
2024/04/10 03:16:47;;;;;;;12.38;7.13;;;;;;;;;;2225583;26;20457;-63
2024/04/10 03:18:06;;;;;;;11.07;7.30;;;;;;;;;;2212810;26;20012;-62
2024/04/10 03:19:25;;;;;;;16.27;7.03;;;;;;;;;;2218278;26;20361;-63
2024/04/10 03:20:44;;;;;;;10.43;7.38;;;;;;;;;;2224791;26;20023;-62
2024/04/10 03:22:03;;;;;;;14.13;7.50;;;;;;;;;;2216284;26;20037;-62
2024/04/10 03:23:22;;;;;;;12.55;7.22;;;;;;;;;;2211989;26;20083;-63
2024/04/10 03:24:41;;;;;;;17.02;7.43;;;;;;;;;;2213265;26;20380;-62
2024/04/10 03:26:01;;;;;;;8.43;6.60;;;;;;;;;;2223577;26;19999;-63
2024/04/10 03:27:20;;;;;;;12.52;7.03;;;;;;;;;;2211350;26;20585;-63
2024/04/10 03:28:41;;;;;;;9.93;6.97;;;;;;;;;;2215690;26;20005;-63
2024/04/10 03:29:59;;;;;;;11.23;6.85;;;;;;;;;;2213129;26;20011;-62
2024/04/10 03:31:18;;;;;;;9.50;5.93;;;;;;;;;;2214794;26;20000;-62
2024/04/10 03:32:38;;;;;;;11.73;6.88;;;;;;;;;;2214583;26;20011;-62
2024/04/10 03:33:57;;;;;;;10.85;6.47;;;;;;;;;;2215113;26;20012;-62
2024/04/10 03:35:16;;;;;;;10.23;6.85;;;;;;;;;;2214805;26;20154;-63
2024/04/10 03:36:35;;;;;;;7.30;5.68;;;;;;;;;;2214005;26;20328;-63
2024/04/10 03:37:55;;;;;;;7.47;6.03;;;;;;;;;;2211933;26;20012;-64
2024/04/10 03:39:13;;;;;;;15.13;6.13;;;;;;;;;;2215899;26;20015;-62
2024/04/10 03:40:32;;;;;;;8.40;6.05;;;;;;;;;;2214297;26;20044;-64
2024/04/10 03:41:51;;;;;;;10.68;5.63;;;;;;;;;;2214569;26;20004;-64
2024/04/10 03:43:10;;;;;;;11.55;5.78;;;;;;;;;;2212179;26;20381;-63
2024/04/10 03:44:29;;;;;;;8.27;5.60;;;;;;;;;;2223170;26;20032;-63
2024/04/10 03:45:49;;;;;;;6.45;5.38;;;;;;;;;;2219352;26;20004;-64
2024/04/10 03:47:08;;;;;;;10.95;5.97;;;;;;;;;;2215459;26;20011;-62
2024/04/10 03:48:27;;;;;;;6.68;4.95;;;;;;;;;;2213649;26;20035;-63
2024/04/10 03:49:46;;;;;;;5.93;5.38;;;;;;;;;;2212977;26;20768;-62
2024/04/10 03:51:05;;;;;;;8.70;5.18;;;;;;;;;;2213155;26;20442;-63
2024/04/10 03:52:25;;;;;;;7.53;5.15;;;;;;;;;;2213113;26;20012;-63
2024/04/10 03:53:44;;;;;;;6.72;5.45;;;;;;;;;;2215221;26;20048;-63
2024/04/10 03:55:03;;;;;;;10.38;4.65;;;;;;;;;;2214033;26;20000;-64
2024/04/10 03:56:22;;;;;;;12.10;5.28;;;;;;;;;;2214370;26;20048;-64
2024/04/10 03:57:41;;;;;;;9.88;4.70;;;;;;;;;;2212622;26;20004;-63
2024/04/10 03:59:00;;;;;;;6.88;4.80;;;;;;;;;;2216573;26;20004;-63
2024/04/10 04:00:19;;;;;;;6.47;4.53;;;;;;;;;;2213561;26;20012;-64
2024/04/10 04:01:38;;;;;;;7.10;4.60;;;;;;;;;;2211833;26;20012;-64
2024/04/10 04:02:57;;;;;;;5.25;4.55;;;;;;;;;;2213431;26;20015;-64
2024/04/10 04:04:16;;;;;;;5.22;4.72;;;;;;;;;;2213764;26;21386;-63
2024/04/10 04:05:35;;;;;;;8.07;4.55;;;;;;;;;;2214573;26;20047;-64
2024/04/10 04:06:55;;;;;;;6.85;4.20;;;;;;;;;;2211889;26;20012;-64
2024/04/10 04:08:14;;;;;;;5.00;4.47;;;;;;;;;;2212885;26;20008;-64
2024/04/10 04:09:33;;;;;;;5.15;4.65;;;;;;;;;;2217322;26;20055;-63
2024/04/10 04:10:56;;;;;;;5.70;3.95;;;;;;;;;;2212843;26;20008;-67
2024/04/10 04:12:15;;;;;;;7.82;4.40;;;;;;;;;;2211696;26;20368;-62
2024/04/10 04:13:37;;;;;;;5.57;4.40;;;;;;;;;;2213527;26;22072;-64
2024/04/10 04:14:56;;;;;;;6.03;4.60;;;;;;;;;;2216142;26;20411;-62
2024/04/10 04:16:15;;;;;;;6.78;4.20;;;;;;;;;;2215708;26;20015;-61
2024/04/10 04:17:35;;;;;;;4.00;3.60;;;;;;;;;;2212271;26;20011;-63
2024/04/10 04:18:54;;;;;;;4.38;3.97;;;;;;;;;;2214695;26;20028;-62
2024/04/10 04:20:13;;;;;;;4.53;3.90;;;;;;;;;;2214754;26;20043;-62
2024/04/10 04:21:32;;;;;;;6.55;4.07;;;;;;;;;;2213385;26;20012;-62
2024/04/10 04:22:51;;;;;;;4.30;3.58;;;;;;;;;;2213912;26;20381;-62
2024/04/10 04:24:10;;;;;;;6.60;3.95;;;;;;;;;;2230055;26;20019;-62
2024/04/10 04:25:30;;;;;;;9.43;4.05;;;;;;;;;;2218915;26;20032;-64
2024/04/10 04:26:49;;;;;;;5.93;3.50;;;;;;;;;;2211991;26;20558;-64
2024/04/10 04:28:08;;;;;;;5.38;3.65;;;;;;;;;;2213253;26;20012;-63
2024/04/10 04:29:27;;;;;;;4.00;3.40;;;;;;;;;;2215103;26;20007;-63
2024/04/10 04:30:47;;;;;;;4.88;3.63;;;;;;;;;;2213347;26;20016;-63
2024/04/10 04:32:06;;;;;;;4.38;3.70;;;;;;;;;;2213337;26;20474;-63
2024/04/10 04:33:25;;;;;;;5.65;3.78;;;;;;;;;;2212657;26;20004;-65
2024/04/10 04:34:44;;;;;;;4.50;3.45;;;;;;;;;;2212934;26;20047;-64
2024/04/10 04:36:04;;;;;;;3.55;3.22;;;;;;;;;;2211942;26;20673;-64
2024/04/10 04:37:24;;;;;;;3.38;2.70;;;;;;;;;;2212348;26;20005;-62
2024/04/10 04:38:43;;;;;;;4.35;2.80;;;;;;;;;;2212443;26;20705;-63
2024/04/10 04:40:06;;;;;;;3.17;2.95;;;;;;;;;;2215164;26;20015;-64
2024/04/10 04:41:25;;;;;;;;;;;;;;;;;;2213662;26;20039;-62
2024/04/10 04:42:44;;;;;;;3.92;2.63;;;;;;;;;;2213023;26;19937;-63
2024/04/10 04:44:03;;;;;;;6.57;3.00;;;;;;;;;;2213676;26;20375;-64
2024/04/10 04:45:22;;;;;;;5.45;2.42;;;;;;;;;;2214845;26;20006;-63
2024/04/10 04:46:41;;;;;;;7.07;2.75;;;;;;;;;;2213299;26;19997;-63
2024/04/10 04:47:59;;;;;;;2.25;2.00;;;;;;;;;;2212756;26;20000;-64
2024/04/10 04:49:19;;;;;;;7.03;2.83;;;;;;;;;;2221074;26;20025;-64
2024/04/10 04:50:44;;;;;;;4.88;2.55;;;;;;;;;;2225538;26;20426;-64
2024/04/10 04:52:03;;;;;;;4.03;2.55;;;;;;;;;;2226538;26;20004;-64
2024/04/10 04:53:22;;;;;;;7.68;2.80;;;;;;;;;;2228545;26;20004;-62
2024/04/10 04:54:41;;;;;;;7.72;2.60;;;;;;;;;;2228084;26;20004;-64
2024/04/10 04:56:00;;;;;;;3.65;2.65;;;;;;;;;;2227084;26;20016;-62
2024/04/10 04:57:19;;;;;;;2.75;2.53;;;;;;;;;;2230838;26;20007;-65
2024/04/10 04:58:38;;;;;;;2.90;2.55;;;;;;;;;;2228681;26;20012;-63
2024/04/10 04:59:57;;;;;;;3.15;2.28;;;;;;;;;;2228050;26;20131;-65
2024/04/10 05:01:16;;;;;;;5.95;2.42;;;;;;;;;;2230637;26;20004;-64
2024/04/10 05:02:35;;;;;;;3.03;2.72;;;;;;;;;;2230737;26;20008;-64
2024/04/10 05:05:36;;;;;;;2.55;2.13;;;;;;;;;;2222254;26;20003;-63
2024/04/10 05:06:55;;;;;;;4.65;2.28;;;;;;;;;;2228505;26;20003;-64
2024/04/10 05:08:14;;;;;;;3.65;2.28;;;;;;;;;;2229573;26;20019;-64
2024/04/10 05:09:33;;;;;;;3.75;2.42;;;;;;;;;;2225647;26;20004;-64
2024/04/10 05:10:53;;;;;;;4.10;2.40;;;;;;;;;;2226630;26;20043;-63
2024/04/10 05:12:12;;;;;;;4.43;2.10;;;;;;;;;;2225941;26;20004;-64
2024/04/10 05:13:31;;;;;;;6.75;1.77;;;;;;;;;;2228072;26;20470;-66
2024/04/10 05:14:50;;;;;;;4.10;2.20;;;;;;;;;;2229340;26;20004;-64
2024/04/10 05:16:10;;;;;;;3.67;1.90;;;;;;;;;;2229471;26;20008;-63
2024/04/10 05:17:29;;;;;;;3.25;2.10;;;;;;;;;;2227597;26;20019;-64
2024/04/10 05:18:49;;;;;;;5.78;2.20;;;;;;;;;;2228268;26;20554;-64
2024/04/10 05:20:10;;;;;;;1.67;1.58;;;;;;;;;;2226104;26;20460;-64
2024/04/10 05:21:30;;;;;;;5.15;2.20;;;;;;;;;;2225969;26;20023;-64
2024/04/10 05:22:49;;;;;;;3.08;2.20;;;;;;;;;;2227117;26;20353;-62
2024/04/10 05:24:08;;;;;;;2.25;1.50;;;;;;;;;;2227064;26;20015;-63
2024/04/10 05:25:27;;;;;;;2.72;1.60;;;;;;;;;;2228727;26;20109;-62
2024/04/10 05:26:46;;;;;;;2.92;1.85;;;;;;;;;;2223262;26;20434;-63
2024/04/10 05:28:05;;;;;;;2.25;1.80;;;;;;;;;;2229643;26;20008;-63
2024/04/10 05:29:24;;;;;;;4.00;1.70;;;;;;;;;;2226077;26;20004;-66
2024/04/10 05:30:43;;;;;;;4.05;1.65;;;;;;;;;;2224835;26;20016;-64
2024/04/10 05:32:02;;;;;;;8.50;1.88;;;;;;;;;;2223995;26;20000;-64
2024/04/10 05:33:21;;;;;;;3.13;1.60;;;;;;;;;;2228498;26;20385;-63
2024/04/10 05:34:40;;;;;;;10.07;1.70;;;;;;;;;;2227014;26;20021;-63
2024/04/10 05:36:01;;;;;;;3.83;1.70;;;;;;;;;;2224179;26;20004;-63
2024/04/10 05:37:21;;;;;;;4.68;1.50;;;;;;;;;;2227434;26;20321;-63
2024/04/10 05:38:40;;;;;;;4.55;1.55;;;;;;;;;;2225597;26;21058;-63
2024/04/10 05:40:06;;;;;;;4.93;1.67;;;;;;;;;;2231324;26;20008;-63
2024/04/10 05:41:26;;;;;;;7.13;1.48;;;;;;;;;;2228845;26;20020;-62
2024/04/10 05:42:45;;;;;;;3.70;2.00;;;;;;;;;;2211368;26;20400;-63
2024/04/10 05:44:04;;;;;;;3.60;1.83;;;;;;;;;;2214047;26;20016;-62
2024/04/10 05:45:24;;;;;;;4.60;1.40;;;;;;;;;;2213973;26;20840;-63
2024/04/10 05:46:43;;;;;;;5.40;1.52;;;;;;;;;;2212736;26;20460;-62
2024/04/10 05:48:03;;;;;;;2.28;1.60;;;;;;;;;;2206363;26;20013;-63
2024/04/10 05:49:22;;;;;;;2.22;1.63;;;;;;;;;;2212053;26;20023;-63
2024/04/10 05:50:42;;;;;;;4.10;1.85;;;;;;;;;;2211271;26;20016;-62
2024/04/10 05:52:01;;;;;;;5.97;1.60;;;;;;;;;;2211008;26;20012;-62
2024/04/10 05:53:20;;;;;;;9.15;2.10;;;;;;;;;;2210204;26;20060;-61
2024/04/10 05:54:38;;;;;;;1.88;1.30;;;;;;;;;;2212041;26;20026;-62
2024/04/10 05:56:01;;;;;;;3.67;1.60;;;;;;;;;;2212046;26;20127;-62
2024/04/10 05:57:21;;;;;;;8.43;1.70;;;;;;;;;;2212053;26;20004;-62
2024/04/10 05:58:40;;;;;;;5.80;1.38;;;;;;;;;;2213300;26;20004;-63
2024/04/10 05:59:59;;;;;;;1.55;1.25;;;;;;;;;;2210972;26;20450;-61
2024/04/10 06:01:18;;;;;;;1.65;1.20;;;;;;;;;;2212016;26;20012;-63
2024/04/10 06:02:40;;;;;;;5.38;1.67;;;;;;;;;;2215252;26;20000;-62
2024/04/10 06:03:59;;;;;;;7.55;1.35;;;;;;;;;;2215367;26;20349;-63
2024/04/10 06:05:18;;;;;;;2.65;1.20;;;;;;;;;;2206097;26;20039;-64
2024/04/10 06:06:37;;;;;;;2.97;1.60;;;;;;;;;;2212984;26;20068;-63
2024/04/10 06:07:56;;;;;;;2.17;1.10;;;;;;;;;;2212373;26;20004;-61
2024/04/10 06:09:15;;;;;;;4.78;1.50;;;;;;;;;;2218722;26;20481;-63
2024/04/10 06:10:34;;;;;;;6.15;1.42;;;;;;;;;;2212587;26;20835;-63
2024/04/10 06:11:53;;;;;;;5.15;1.40;;;;;;;;;;2214830;26;20068;-62
2024/04/10 06:13:12;;;;;;;6.22;1.60;;;;;;;;;;2213211;26;20019;-63
2024/04/10 06:14:31;;;;;;;4.45;1.27;;;;;;;;;;2217042;26;20005;-63
2024/04/10 06:15:57;;;;;;;2.13;1.55;;;;;;;;;;2212313;26;20832;-63
2024/04/10 06:17:16;;;;;;;4.60;1.30;;;;;;;;;;2227275;26;20411;-63
2024/04/10 06:18:36;;;;;;;5.57;1.50;;;;;;;;;;2214718;26;20004;-66
2024/04/10 06:19:55;;;;;;;4.47;1.13;;;;;;;;;;2215490;26;20000;-63
2024/04/10 06:21:14;;;;;;;8.18;1.30;;;;;;;;;;2214462;26;20005;-64
2024/04/10 06:22:33;;;;;;;5.03;1.10;;;;;;;;;;2215409;26;20419;-61
2024/04/10 06:23:52;;;;;;;2.05;1.27;;;;;;;;;;2219063;26;20072;-63
2024/04/10 06:25:11;;;;;;;4.70;1.13;;;;;;;;;;2212595;26;20039;-63
2024/04/10 06:26:30;;;;;;;2.90;0.93;;;;;;;;;;2213761;26;20775;-64
2024/04/10 06:27:49;;;;;;;3.60;1.90;;;;;;;;;;2216198;26;20395;-62
2024/04/10 06:29:08;;;;;;;6.35;0.93;;;;;;;;;;2215729;26;20008;-63
2024/04/10 06:30:28;;;;;;;8.30;1.10;;;;;;;;;;2212440;26;23140;-63
2024/04/10 06:31:47;;;;;;;1.92;1.27;;;;;;;;;;2214815;26;20012;-63
2024/04/10 06:33:06;;;;;;;3.47;1.30;;;;;;;;;;2215666;26;20329;-63
2024/04/10 06:34:25;;;;;;;6.68;1.35;;;;;;;;;;2214754;26;20000;-63
2024/04/10 06:35:44;;;;;;;1.52;1.00;;;;;;;;;;2213651;26;20008;-64
2024/04/10 06:37:05;;;;;;;4.57;1.42;;;;;;;;;;2212333;26;20024;-62
2024/04/10 06:38:23;;;;;;;3.58;1.20;;;;;;;;;;2212928;26;20747;-63
2024/04/10 06:39:43;;;;;;;5.78;1.40;;;;;;;;;;2215571;26;20011;-63
2024/04/10 06:41:02;;;;;;;4.75;1.38;;;;;;;;;;2213151;26;20024;-63
2024/04/10 06:42:21;;;;;;;5.85;1.50;;;;;;;;;;2211386;26;20322;-63
2024/04/10 06:43:40;;;;;;;2.88;1.42;;;;;;;;;;2213031;26;20016;-65
2024/04/10 06:44:59;;;;;;;4.82;1.40;;;;;;;;;;2213261;26;20016;-63
2024/04/10 06:46:18;;;;;;;5.07;1.33;;;;;;;;;;2213483;26;20453;-62
2024/04/10 06:47:37;;;;;;;8.32;1.30;;;;;;;;;;2214178;26;20012;-62
2024/04/10 06:48:56;;;;;;;4.68;1.48;;;;;;;;;;2215006;26;20039;-63
2024/04/10 06:50:16;;;;;;;7.53;1.65;;;;;;;;;;2213025;26;20577;-62
2024/04/10 06:51:35;;;;;;;5.82;1.55;;;;;;;;;;2211916;26;20020;-63
2024/04/10 06:52:54;;;;;;;6.25;1.95;;;;;;;;;;2214228;26;20004;-64
2024/04/10 06:54:14;;;;;;;9.93;2.05;;;;;;;;;;2215989;26;20016;-64
2024/04/10 06:55:33;;;;;;;5.78;1.40;;;;;;;;;;2212317;26;20464;-63
2024/04/10 06:56:52;;;;;;;5.93;1.77;;;;;;;;;;2211190;26;20012;-63
2024/04/10 06:58:11;;;;;;;5.57;2.60;;;;;;;;;;2213094;26;20012;-63
2024/04/10 06:59:30;;;;;;;7.47;1.52;;;;;;;;;;2213384;26;21190;-63
2024/04/10 07:01:00;;;;;;;4.10;1.65;;;;;;;;;;2212726;26;20036;-64
2024/04/10 07:02:19;;;;;;;5.05;1.83;;;;;;;;;;2214975;26;20020;-67
2024/04/10 07:03:40;;;;;;;6.43;1.60;;;;;;;;;;2216447;26;20121;-63
2024/04/10 07:04:58;;;;;;;8.48;1.80;;;;;;;;;;2213462;26;20000;-64
2024/04/10 07:06:17;;;;;;;3.78;2.15;;;;;;;;;;2213476;26;20021;-63
2024/04/10 07:07:37;;;;;;;5.90;1.70;;;;;;;;;;2225951;26;20046;-63
2024/04/10 07:08:57;;;;;;;5.30;1.75;;;;;;;;;;2231445;26;20005;-63
2024/04/10 07:10:16;;;;;;;3.17;1.73;;;;;;;;;;2216302;26;20004;-63
2024/04/10 07:11:35;;;;;;;4.50;1.70;;;;;;;;;;2214952;26;20015;-62
2024/04/10 07:12:54;;;;;;;6.10;1.85;;;;;;;;;;2213189;26;19999;-64
2024/04/10 07:14:13;;;;;;;7.38;1.40;;;;;;;;;;2215172;26;20008;-63
2024/04/10 07:15:32;;;;;;;5.22;1.95;;;;;;;;;;2214862;26;20768;-63
2024/04/10 07:16:51;;;;;;;10.38;2.05;;;;;;;;;;2215361;26;20004;-63
2024/04/10 07:18:10;;;;;;;5.95;2.10;;;;;;;;;;2215420;26;20000;-62
2024/04/10 07:19:34;;;;;;;5.28;1.90;;;;;;;;;;2215121;26;20028;-62
2024/04/10 07:21:00;;;;;;;5.13;1.52;;;;;;;;;;2214830;26;20405;-62
2024/04/10 07:22:19;;;;;;;7.82;2.03;;;;;;;;;;2214709;26;20739;-64
2024/04/10 07:23:41;;;;;;;5.53;1.40;;;;;;;;;;2223920;26;20474;-63
2024/04/10 07:25:01;;;;;;;3.85;1.58;;;;;;;;;;2219547;26;20443;-65
2024/04/10 07:26:20;;;;;;;4.63;1.75;;;;;;;;;;2229736;26;20012;-64
2024/04/10 07:27:39;;;;;;;5.15;2.13;;;;;;;;;;2230092;26;20016;-64
2024/04/10 07:28:58;;;;;;;5.45;1.90;;;;;;;;;;2224401;26;20018;-63
2024/04/10 07:30:18;;;;;;;8.50;1.50;;;;;;;;;;2220161;26;20004;-64
2024/04/10 07:31:39;;;;;;;6.60;1.98;;;;;;;;;;2231532;26;20020;-64
2024/04/10 07:32:58;;;;;;;7.80;2.30;;;;;;;;;;2229745;26;20361;-64
2024/04/10 07:34:17;;;;;;;7.32;2.17;;;;;;;;;;2219999;26;20461;-63
2024/04/10 07:35:36;;;;;;;5.15;1.95;;;;;;;;;;2214206;26;20055;-63
2024/04/10 07:36:55;;;;;;;4.97;2.13;;;;;;;;;;2214265;26;20423;-63
2024/04/10 07:38:15;;;;;;;4.75;2.03;;;;;;;;;;2218404;26;20008;-63
2024/04/10 07:39:34;;;;;;;5.57;1.80;;;;;;;;;;2215837;26;20012;-64
2024/04/10 07:40:54;;;;;;;7.63;1.90;;;;;;;;;;2220956;26;20804;-64
2024/04/10 07:42:13;;;;;;;3.03;1.80;;;;;;;;;;2214762;26;20465;-64
2024/04/10 07:43:34;;;;;;;6.13;2.13;;;;;;;;;;2213041;26;20035;-63
2024/04/10 07:44:52;;;;;;;5.65;2.22;;;;;;;;;;2216275;26;20330;-62
2024/04/10 07:46:12;;;;;;;4.75;1.92;;;;;;;;;;2213123;26;20016;-61
2024/04/10 07:47:31;;;;;;;14.02;2.45;;;;;;;;;;2215188;26;20028;-63
2024/04/10 07:48:57;;;;;;;8.45;1.85;;;;;;;;;;2214778;26;20432;-63
2024/04/10 07:50:16;;;;;;;4.95;1.50;;;;;;;;;;2212705;26;20008;-64
2024/04/10 07:51:35;;;;;;;12.73;1.75;;;;;;;;;;2213030;26;20004;-63
2024/04/10 07:52:54;;;;;;;8.95;2.40;;;;;;;;;;2212869;26;20012;-63
2024/04/10 07:54:13;;;;;;;3.55;1.67;;;;;;;;;;2216820;26;20004;-63
2024/04/10 07:55:32;;;;;;;8.18;1.73;;;;;;;;;;2212902;26;20025;-62
2024/04/10 07:56:51;;;;;;;3.15;1.50;;;;;;;;;;2215102;26;19996;-62